sensor_id;sensor_type;location;lat;lon;timestamp;temperature;humidity
51557;DHT22;38766;53.194;5.532;2022-11-20T00:01:25;2.50;99.90
51557;DHT22;38766;53.194;5.532;2022-11-20T00:03:52;2.40;99.90
51557;DHT22;38766;53.194;5.532;2022-11-20T00:06:20;2.50;99.90
51557;DHT22;38766;53.194;5.532;2022-11-20T00:08:47;2.50;99.90
51557;DHT22;38766;53.194;5.532;2022-11-20T00:11:15;2.50;99.90
51557;DHT22;38766;53.194;5.532;2022-11-20T00:13:43;2.50;99.90
51557;DHT22;38766;53.194;5.532;2022-11-20T00:16:10;2.50;99.90
51557;DHT22;38766;53.194;5.532;2022-11-20T00:18:36;2.50;99.90
51557;DHT22;38766;53.194;5.532;2022-11-20T00:21:04;2.50;99.90
51557;DHT22;38766;53.194;5.532;2022-11-20T00:23:30;2.50;99.90
51557;DHT22;38766;53.194;5.532;2022-11-20T00:25:55;2.40;99.90
51557;DHT22;38766;53.194;5.532;2022-11-20T00:28:21;2.40;99.90
51557;DHT22;38766;53.194;5.532;2022-11-20T00:30:47;2.30;99.90
51557;DHT22;38766;53.194;5.532;2022-11-20T00:33:12;2.40;99.90
51557;DHT22;38766;53.194;5.532;2022-11-20T00:35:38;2.40;99.90
51557;DHT22;38766;53.194;5.532;2022-11-20T00:38:03;2.40;99.90
51557;DHT22;38766;53.194;5.532;2022-11-20T00:40:32;2.40;99.90
51557;DHT22;38766;53.194;5.532;2022-11-20T00:43:00;2.40;99.90
51557;DHT22;38766;53.194;5.532;2022-11-20T00:45:26;2.40;99.90
51557;DHT22;38766;53.194;5.532;2022-11-20T00:47:51;2.50;99.90
51557;DHT22;38766;53.194;5.532;2022-11-20T00:50:18;2.40;99.90
51557;DHT22;38766;53.194;5.532;2022-11-20T00:52:44;2.50;99.90
51557;DHT22;38766;53.194;5.532;2022-11-20T00:55:09;2.40;99.90
51557;DHT22;38766;53.194;5.532;2022-11-20T00:57:35;2.40;99.90
51557;DHT22;38766;53.194;5.532;2022-11-20T01:00:00;2.40;99.90
51557;DHT22;38766;53.194;5.532;2022-11-20T01:02:26;2.40;99.90
51557;DHT22;38766;53.194;5.532;2022-11-20T01:04:51;2.40;99.90
51557;DHT22;38766;53.194;5.532;2022-11-20T01:07:17;2.40;99.90
51557;DHT22;38766;53.194;5.532;2022-11-20T01:09:43;2.30;99.90
51557;DHT22;38766;53.194;5.532;2022-11-20T01:12:08;2.30;99.90
51557;DHT22;38766;53.194;5.532;2022-11-20T01:14:34;2.30;99.90
51557;DHT22;38766;53.194;5.532;2022-11-20T01:16:59;2.30;99.90
51557;DHT22;38766;53.194;5.532;2022-11-20T01:19:25;2.30;99.90
51557;DHT22;38766;53.194;5.532;2022-11-20T01:21:52;2.30;99.90
51557;DHT22;38766;53.194;5.532;2022-11-20T01:24:20;2.40;99.90
51557;DHT22;38766;53.194;5.532;2022-11-20T01:26:48;2.40;99.90
51557;DHT22;38766;53.194;5.532;2022-11-20T01:29:16;2.40;99.90
51557;DHT22;38766;53.194;5.532;2022-11-20T01:31:43;2.40;99.90
51557;DHT22;38766;53.194;5.532;2022-11-20T01:34:12;2.40;99.90
51557;DHT22;38766;53.194;5.532;2022-11-20T01:36:39;2.40;99.90
51557;DHT22;38766;53.194;5.532;2022-11-20T01:39:18;2.40;99.90
51557;DHT22;38766;53.194;5.532;2022-11-20T01:41:44;2.30;99.90
51557;DHT22;38766;53.194;5.532;2022-11-20T01:49:54;2.30;99.90
51557;DHT22;38766;53.194;5.532;2022-11-20T01:52:44;2.30;99.90
51557;DHT22;38766;53.194;5.532;2022-11-20T01:55:18;2.30;99.90
51557;DHT22;38766;53.194;5.532;2022-11-20T01:57:45;2.30;99.90
51557;DHT22;38766;53.194;5.532;2022-11-20T02:00:14;2.30;99.90
51557;DHT22;38766;53.194;5.532;2022-11-20T02:02:43;2.30;99.90
51557;DHT22;38766;53.194;5.532;2022-11-20T02:05:30;2.30;99.90
51557;DHT22;38766;53.194;5.532;2022-11-20T02:07:59;2.30;99.90
51557;DHT22;38766;53.194;5.532;2022-11-20T02:10:27;2.30;99.90
51557;DHT22;38766;53.194;5.532;2022-11-20T02:12:53;2.40;99.90
51557;DHT22;38766;53.194;5.532;2022-11-20T02:15:38;2.30;99.90
51557;DHT22;38766;53.194;5.532;2022-11-20T02:18:05;2.40;99.90
51557;DHT22;38766;53.194;5.532;2022-11-20T02:20:32;2.40;99.90
51557;DHT22;38766;53.194;5.532;2022-11-20T02:22:59;2.40;99.90
51557;DHT22;38766;53.194;5.532;2022-11-20T02:25:28;2.30;99.90
51557;DHT22;38766;53.194;5.532;2022-11-20T02:27:56;2.30;99.90
51557;DHT22;38766;53.194;5.532;2022-11-20T02:30:21;2.30;99.90
51557;DHT22;38766;53.194;5.532;2022-11-20T02:32:47;2.30;99.90
51557;DHT22;38766;53.194;5.532;2022-11-20T02:37:45;2.20;99.90
51557;DHT22;38766;53.194;5.532;2022-11-20T02:40:12;2.20;99.90
51557;DHT22;38766;53.194;5.532;2022-11-20T02:42:37;2.20;99.90
51557;DHT22;38766;53.194;5.532;2022-11-20T02:45:05;2.30;99.90
51557;DHT22;38766;53.194;5.532;2022-11-20T02:47:30;2.20;99.90
51557;DHT22;38766;53.194;5.532;2022-11-20T02:49:56;2.20;99.90
51557;DHT22;38766;53.194;5.532;2022-11-20T02:52:22;2.20;99.90
51557;DHT22;38766;53.194;5.532;2022-11-20T02:54:47;2.20;99.90
51557;DHT22;38766;53.194;5.532;2022-11-20T02:57:13;2.20;99.90
51557;DHT22;38766;53.194;5.532;2022-11-20T02:59:39;2.20;99.90
51557;DHT22;38766;53.194;5.532;2022-11-20T03:02:07;2.20;99.90
51557;DHT22;38766;53.194;5.532;2022-11-20T03:04:33;2.20;99.90
51557;DHT22;38766;53.194;5.532;2022-11-20T03:06:59;2.20;99.90
51557;DHT22;38766;53.194;5.532;2022-11-20T03:09:24;2.20;99.90
51557;DHT22;38766;53.194;5.532;2022-11-20T03:11:50;2.20;99.90
51557;DHT22;38766;53.194;5.532;2022-11-20T03:14:15;2.10;99.90
51557;DHT22;38766;53.194;5.532;2022-11-20T03:16:41;2.00;99.90
51557;DHT22;38766;53.194;5.532;2022-11-20T03:19:07;2.10;99.90
51557;DHT22;38766;53.194;5.532;2022-11-20T03:21:33;2.10;99.90
51557;DHT22;38766;53.194;5.532;2022-11-20T03:23:59;2.10;99.90
51557;DHT22;38766;53.194;5.532;2022-11-20T03:26:26;2.10;99.90
51557;DHT22;38766;53.194;5.532;2022-11-20T03:28:57;2.10;99.90
51557;DHT22;38766;53.194;5.532;2022-11-20T03:31:25;2.10;99.90
51557;DHT22;38766;53.194;5.532;2022-11-20T03:33:58;2.10;99.90
51557;DHT22;38766;53.194;5.532;2022-11-20T03:36:24;2.10;99.90
51557;DHT22;38766;53.194;5.532;2022-11-20T03:38:50;2.00;99.90
51557;DHT22;38766;53.194;5.532;2022-11-20T03:41:18;2.00;99.90
51557;DHT22;38766;53.194;5.532;2022-11-20T03:43:49;1.90;99.90
51557;DHT22;38766;53.194;5.532;2022-11-20T03:46:16;1.90;99.90
51557;DHT22;38766;53.194;5.532;2022-11-20T03:48:41;1.90;99.90
51557;DHT22;38766;53.194;5.532;2022-11-20T03:51:15;1.90;99.90
51557;DHT22;38766;53.194;5.532;2022-11-20T03:53:45;1.80;99.90
51557;DHT22;38766;53.194;5.532;2022-11-20T03:56:13;1.80;99.90
51557;DHT22;38766;53.194;5.532;2022-11-20T03:58:40;1.80;99.90
51557;DHT22;38766;53.194;5.532;2022-11-20T04:01:11;1.90;99.90
51557;DHT22;38766;53.194;5.532;2022-11-20T04:03:39;1.90;99.90
51557;DHT22;38766;53.194;5.532;2022-11-20T04:06:10;1.90;99.90
51557;DHT22;38766;53.194;5.532;2022-11-20T04:08:36;1.80;99.90
51557;DHT22;38766;53.194;5.532;2022-11-20T04:13:38;1.70;99.90
51557;DHT22;38766;53.194;5.532;2022-11-20T04:16:05;1.60;99.90
51557;DHT22;38766;53.194;5.532;2022-11-20T04:18:31;1.60;99.90
51557;DHT22;38766;53.194;5.532;2022-11-20T04:20:57;1.50;99.90
51557;DHT22;38766;53.194;5.532;2022-11-20T04:23:24;1.40;99.90
51557;DHT22;38766;53.194;5.532;2022-11-20T04:25:49;1.40;99.90
51557;DHT22;38766;53.194;5.532;2022-11-20T04:28:15;1.40;99.90
51557;DHT22;38766;53.194;5.532;2022-11-20T04:30:40;1.50;99.90
51557;DHT22;38766;53.194;5.532;2022-11-20T04:33:06;1.50;99.90
51557;DHT22;38766;53.194;5.532;2022-11-20T04:35:34;1.60;99.90
51557;DHT22;38766;53.194;5.532;2022-11-20T04:38:00;1.60;99.90
51557;DHT22;38766;53.194;5.532;2022-11-20T04:40:25;1.70;99.90
51557;DHT22;38766;53.194;5.532;2022-11-20T04:42:51;1.70;99.90
51557;DHT22;38766;53.194;5.532;2022-11-20T04:45:17;1.70;99.90
51557;DHT22;38766;53.194;5.532;2022-11-20T04:47:42;1.70;99.90
51557;DHT22;38766;53.194;5.532;2022-11-20T04:50:08;1.70;99.90
51557;DHT22;38766;53.194;5.532;2022-11-20T04:52:35;1.60;99.90
51557;DHT22;38766;53.194;5.532;2022-11-20T04:55:01;1.60;99.90
51557;DHT22;38766;53.194;5.532;2022-11-20T04:57:29;1.60;99.90
51557;DHT22;38766;53.194;5.532;2022-11-20T04:59:55;1.60;99.90
51557;DHT22;38766;53.194;5.532;2022-11-20T05:02:20;1.60;99.90
51557;DHT22;38766;53.194;5.532;2022-11-20T05:04:46;1.60;99.90
51557;DHT22;38766;53.194;5.532;2022-11-20T05:07:12;1.60;99.90
51557;DHT22;38766;53.194;5.532;2022-11-20T05:09:37;1.50;99.90
51557;DHT22;38766;53.194;5.532;2022-11-20T05:12:09;1.50;99.90
51557;DHT22;38766;53.194;5.532;2022-11-20T05:14:35;1.50;99.90
51557;DHT22;38766;53.194;5.532;2022-11-20T05:17:00;1.60;99.90
51557;DHT22;38766;53.194;5.532;2022-11-20T05:19:26;1.60;99.90
51557;DHT22;38766;53.194;5.532;2022-11-20T05:21:51;1.50;99.90
51557;DHT22;38766;53.194;5.532;2022-11-20T05:24:17;1.50;99.90
51557;DHT22;38766;53.194;5.532;2022-11-20T05:26:43;1.60;99.90
51557;DHT22;38766;53.194;5.532;2022-11-20T05:29:12;1.60;99.90
51557;DHT22;38766;53.194;5.532;2022-11-20T05:31:40;1.60;99.90
51557;DHT22;38766;53.194;5.532;2022-11-20T05:34:06;1.60;99.90
51557;DHT22;38766;53.194;5.532;2022-11-20T05:36:32;1.60;99.90
51557;DHT22;38766;53.194;5.532;2022-11-20T05:39:00;1.50;99.90
51557;DHT22;38766;53.194;5.532;2022-11-20T05:41:26;1.50;99.90
51557;DHT22;38766;53.194;5.532;2022-11-20T05:43:51;1.50;99.90
51557;DHT22;38766;53.194;5.532;2022-11-20T05:46:19;1.40;99.90
51557;DHT22;38766;53.194;5.532;2022-11-20T05:48:45;1.40;99.90
51557;DHT22;38766;53.194;5.532;2022-11-20T05:51:14;1.40;99.90
51557;DHT22;38766;53.194;5.532;2022-11-20T05:53:40;1.40;99.90
51557;DHT22;38766;53.194;5.532;2022-11-20T05:56:08;1.40;99.90
51557;DHT22;38766;53.194;5.532;2022-11-20T05:58:36;1.40;99.90
51557;DHT22;38766;53.194;5.532;2022-11-20T06:03:33;1.40;99.90
51557;DHT22;38766;53.194;5.532;2022-11-20T06:06:01;1.40;99.90
51557;DHT22;38766;53.194;5.532;2022-11-20T06:08:27;1.40;99.90
51557;DHT22;38766;53.194;5.532;2022-11-20T06:10:52;1.50;99.90
51557;DHT22;38766;53.194;5.532;2022-11-20T06:13:18;1.50;99.90
51557;DHT22;38766;53.194;5.532;2022-11-20T06:15:50;1.50;99.90
51557;DHT22;38766;53.194;5.532;2022-11-20T06:18:16;1.40;99.90
51557;DHT22;38766;53.194;5.532;2022-11-20T06:20:45;1.40;99.90
51557;DHT22;38766;53.194;5.532;2022-11-20T06:23:10;1.40;99.90
51557;DHT22;38766;53.194;5.532;2022-11-20T06:25:42;1.40;99.90
51557;DHT22;38766;53.194;5.532;2022-11-20T06:28:08;1.50;99.90
51557;DHT22;38766;53.194;5.532;2022-11-20T06:30:35;1.50;99.90
51557;DHT22;38766;53.194;5.532;2022-11-20T06:33:01;1.50;99.90
51557;DHT22;38766;53.194;5.532;2022-11-20T06:35:26;1.50;99.90
51557;DHT22;38766;53.194;5.532;2022-11-20T06:37:52;1.50;99.90
51557;DHT22;38766;53.194;5.532;2022-11-20T06:40:18;1.50;99.90
51557;DHT22;38766;53.194;5.532;2022-11-20T06:42:43;1.50;99.90
51557;DHT22;38766;53.194;5.532;2022-11-20T06:45:09;1.50;99.90
51557;DHT22;38766;53.194;5.532;2022-11-20T06:47:35;1.50;99.90
51557;DHT22;38766;53.194;5.532;2022-11-20T06:50:00;1.60;99.90
51557;DHT22;38766;53.194;5.532;2022-11-20T06:52:26;1.60;99.90
51557;DHT22;38766;53.194;5.532;2022-11-20T06:54:52;1.60;99.90
51557;DHT22;38766;53.194;5.532;2022-11-20T06:57:17;1.60;99.90
51557;DHT22;38766;53.194;5.532;2022-11-20T06:59:43;1.60;99.90
51557;DHT22;38766;53.194;5.532;2022-11-20T07:02:12;1.70;99.90
51557;DHT22;38766;53.194;5.532;2022-11-20T07:04:38;1.70;99.90
51557;DHT22;38766;53.194;5.532;2022-11-20T07:07:04;1.70;99.90
51557;DHT22;38766;53.194;5.532;2022-11-20T07:09:31;1.60;99.90
51557;DHT22;38766;53.194;5.532;2022-11-20T07:11:57;1.60;99.90
51557;DHT22;38766;53.194;5.532;2022-11-20T07:14:23;1.70;99.90
51557;DHT22;38766;53.194;5.532;2022-11-20T07:16:49;1.60;99.90
51557;DHT22;38766;53.194;5.532;2022-11-20T07:19:14;1.60;99.90
51557;DHT22;38766;53.194;5.532;2022-11-20T07:21:40;1.60;99.90
51557;DHT22;38766;53.194;5.532;2022-11-20T07:24:06;1.60;99.90
51557;DHT22;38766;53.194;5.532;2022-11-20T07:26:31;1.50;99.90
51557;DHT22;38766;53.194;5.532;2022-11-20T07:28:57;1.60;99.90
51557;DHT22;38766;53.194;5.532;2022-11-20T07:31:22;1.60;99.90
51557;DHT22;38766;53.194;5.532;2022-11-20T07:33:48;1.50;99.90
51557;DHT22;38766;53.194;5.532;2022-11-20T07:36:14;1.50;99.90
51557;DHT22;38766;53.194;5.532;2022-11-20T07:38:39;1.60;99.90
51557;DHT22;38766;53.194;5.532;2022-11-20T07:41:17;1.50;99.90
51557;DHT22;38766;53.194;5.532;2022-11-20T07:43:43;1.60;99.90
51557;DHT22;38766;53.194;5.532;2022-11-20T07:46:11;1.50;99.90
51557;DHT22;38766;53.194;5.532;2022-11-20T07:48:37;1.50;99.90
51557;DHT22;38766;53.194;5.532;2022-11-20T07:51:02;1.40;99.90
51557;DHT22;38766;53.194;5.532;2022-11-20T07:53:28;1.40;99.90
51557;DHT22;38766;53.194;5.532;2022-11-20T07:55:53;1.40;99.90
51557;DHT22;38766;53.194;5.532;2022-11-20T07:58:20;1.30;99.90
51557;DHT22;38766;53.194;5.532;2022-11-20T08:00:46;1.30;99.90
51557;DHT22;38766;53.194;5.532;2022-11-20T08:03:11;1.30;99.90
51557;DHT22;38766;53.194;5.532;2022-11-20T08:05:37;1.30;99.90
51557;DHT22;38766;53.194;5.532;2022-11-20T08:08:03;1.30;99.90
51557;DHT22;38766;53.194;5.532;2022-11-20T08:10:29;1.30;99.90
51557;DHT22;38766;53.194;5.532;2022-11-20T08:12:54;1.30;99.90
51557;DHT22;38766;53.194;5.532;2022-11-20T08:15:39;1.30;99.90
51557;DHT22;38766;53.194;5.532;2022-11-20T08:18:10;1.30;99.90
51557;DHT22;38766;53.194;5.532;2022-11-20T08:20:37;1.20;99.90
51557;DHT22;38766;53.194;5.532;2022-11-20T08:23:05;1.30;99.90
51557;DHT22;38766;53.194;5.532;2022-11-20T08:25:32;1.30;99.90
51557;DHT22;38766;53.194;5.532;2022-11-20T08:28:03;1.30;99.90
51557;DHT22;38766;53.194;5.532;2022-11-20T08:30:29;1.40;99.90
51557;DHT22;38766;53.194;5.532;2022-11-20T08:33:01;1.40;99.90
51557;DHT22;38766;53.194;5.532;2022-11-20T08:35:27;1.50;99.90
51557;DHT22;38766;53.194;5.532;2022-11-20T08:37:53;1.60;99.90
51557;DHT22;38766;53.194;5.532;2022-11-20T08:40:18;1.60;99.90
51557;DHT22;38766;53.194;5.532;2022-11-20T08:42:48;1.70;99.90
51557;DHT22;38766;53.194;5.532;2022-11-20T08:45:15;1.80;99.90
51557;DHT22;38766;53.194;5.532;2022-11-20T08:47:41;1.90;99.90
51557;DHT22;38766;53.194;5.532;2022-11-20T08:50:08;2.00;99.90
51557;DHT22;38766;53.194;5.532;2022-11-20T08:52:37;2.10;99.90
51557;DHT22;38766;53.194;5.532;2022-11-20T08:55:03;2.20;99.90
51557;DHT22;38766;53.194;5.532;2022-11-20T08:57:35;2.30;99.90
51557;DHT22;38766;53.194;5.532;2022-11-20T09:00:01;2.50;99.90
51557;DHT22;38766;53.194;5.532;2022-11-20T09:02:27;2.60;99.90
51557;DHT22;38766;53.194;5.532;2022-11-20T09:04:52;2.80;99.90
51557;DHT22;38766;53.194;5.532;2022-11-20T09:07:19;3.00;99.90
51557;DHT22;38766;53.194;5.532;2022-11-20T09:09:45;3.20;99.90
51557;DHT22;38766;53.194;5.532;2022-11-20T09:12:10;3.40;99.90
51557;DHT22;38766;53.194;5.532;2022-11-20T09:14:36;3.50;99.90
51557;DHT22;38766;53.194;5.532;2022-11-20T09:17:01;3.70;99.90
51557;DHT22;38766;53.194;5.532;2022-11-20T09:19:27;4.00;99.90
51557;DHT22;38766;53.194;5.532;2022-11-20T09:21:53;4.20;99.90
51557;DHT22;38766;53.194;5.532;2022-11-20T09:24:19;4.50;99.90
51557;DHT22;38766;53.194;5.532;2022-11-20T09:26:46;4.70;99.90
51557;DHT22;38766;53.194;5.532;2022-11-20T09:29:12;5.00;99.90
51557;DHT22;38766;53.194;5.532;2022-11-20T09:31:37;5.10;99.90
51557;DHT22;38766;53.194;5.532;2022-11-20T09:34:03;5.20;99.90
51557;DHT22;38766;53.194;5.532;2022-11-20T09:36:29;5.10;99.90
51557;DHT22;38766;53.194;5.532;2022-11-20T09:38:54;5.00;99.90
51557;DHT22;38766;53.194;5.532;2022-11-20T09:41:44;4.90;99.90
51557;DHT22;38766;53.194;5.532;2022-11-20T09:50:37;4.60;99.90
51557;DHT22;38766;53.194;5.532;2022-11-20T09:53:30;4.50;99.90
51557;DHT22;38766;53.194;5.532;2022-11-20T09:56:01;4.60;99.90
51557;DHT22;38766;53.194;5.532;2022-11-20T09:58:39;4.70;99.90
51557;DHT22;38766;53.194;5.532;2022-11-20T10:01:15;4.80;99.90
51557;DHT22;38766;53.194;5.532;2022-11-20T10:03:45;4.70;99.90
51557;DHT22;38766;53.194;5.532;2022-11-20T10:06:16;4.70;99.90
51557;DHT22;38766;53.194;5.532;2022-11-20T10:08:51;4.60;99.90
51557;DHT22;38766;53.194;5.532;2022-11-20T10:17:22;4.70;99.90
51557;DHT22;38766;53.194;5.532;2022-11-20T10:23:09;4.70;99.90
51557;DHT22;38766;53.194;5.532;2022-11-20T10:31:00;4.70;99.90
51557;DHT22;38766;53.194;5.532;2022-11-20T10:33:29;4.60;99.90
51557;DHT22;38766;53.194;5.532;2022-11-20T10:36:19;4.60;99.90
51557;DHT22;38766;53.194;5.532;2022-11-20T10:38:58;4.40;99.90
51557;DHT22;38766;53.194;5.532;2022-11-20T10:41:28;4.40;99.90
51557;DHT22;38766;53.194;5.532;2022-11-20T10:47:03;4.20;99.90
51557;DHT22;38766;53.194;5.532;2022-11-20T10:49:31;4.20;99.90
51557;DHT22;38766;53.194;5.532;2022-11-20T10:55:25;4.20;99.90
51557;DHT22;38766;53.194;5.532;2022-11-20T11:00:37;4.20;99.90
51557;DHT22;38766;53.194;5.532;2022-11-20T11:03:02;4.20;99.90
51557;DHT22;38766;53.194;5.532;2022-11-20T11:05:39;4.40;99.90
51557;DHT22;38766;53.194;5.532;2022-11-20T11:08:12;4.50;99.90
51557;DHT22;38766;53.194;5.532;2022-11-20T11:10:54;4.80;99.90
51557;DHT22;38766;53.194;5.532;2022-11-20T11:13:28;5.00;99.90
51557;DHT22;38766;53.194;5.532;2022-11-20T11:15:54;5.10;99.90
51557;DHT22;38766;53.194;5.532;2022-11-20T11:18:38;5.20;99.90
51557;DHT22;38766;53.194;5.532;2022-11-20T11:21:05;5.30;99.90
51557;DHT22;38766;53.194;5.532;2022-11-20T11:23:39;5.30;99.90
51557;DHT22;38766;53.194;5.532;2022-11-20T11:26:18;5.40;99.90
51557;DHT22;38766;53.194;5.532;2022-11-20T11:28:57;5.50;99.90
51557;DHT22;38766;53.194;5.532;2022-11-20T11:31:31;5.60;99.90
51557;DHT22;38766;53.194;5.532;2022-11-20T11:34:13;5.60;99.90
51557;DHT22;38766;53.194;5.532;2022-11-20T11:36:40;5.50;99.90
51557;DHT22;38766;53.194;5.532;2022-11-20T11:39:11;5.40;99.90
51557;DHT22;38766;53.194;5.532;2022-11-20T11:41:39;5.30;99.90
51557;DHT22;38766;53.194;5.532;2022-11-20T11:47:08;5.20;99.90
51557;DHT22;38766;53.194;5.532;2022-11-20T11:49:35;5.10;99.90
51557;DHT22;38766;53.194;5.532;2022-11-20T11:52:25;5.00;99.90
51557;DHT22;38766;53.194;5.532;2022-11-20T11:54:57;5.00;99.90
51557;DHT22;38766;53.194;5.532;2022-11-20T11:57:32;4.90;99.90
51557;DHT22;38766;53.194;5.532;2022-11-20T12:00:15;4.80;99.90
51557;DHT22;38766;53.194;5.532;2022-11-20T12:05:23;4.60;99.90
51557;DHT22;38766;53.194;5.532;2022-11-20T12:10:33;4.60;99.90
51557;DHT22;38766;53.194;5.532;2022-11-20T12:13:08;4.50;99.90
51557;DHT22;38766;53.194;5.532;2022-11-20T12:15:40;4.50;99.90
51557;DHT22;38766;53.194;5.532;2022-11-20T12:18:16;4.50;99.90
51557;DHT22;38766;53.194;5.532;2022-11-20T12:26:19;4.30;99.90
51557;DHT22;38766;53.194;5.532;2022-11-20T12:29:06;4.30;99.90
51557;DHT22;38766;53.194;5.532;2022-11-20T12:31:55;4.30;99.90
51557;DHT22;38766;53.194;5.532;2022-11-20T12:39:55;4.10;99.90
51557;DHT22;38766;53.194;5.532;2022-11-20T12:42:34;4.00;99.90
51557;DHT22;38766;53.194;5.532;2022-11-20T12:56:48;3.90;99.90
51557;DHT22;38766;53.194;5.532;2022-11-20T13:01:51;3.80;99.90
51557;DHT22;38766;53.194;5.532;2022-11-20T13:06:56;3.70;99.90
51557;DHT22;38766;53.194;5.532;2022-11-20T13:09:22;3.70;99.90
51557;DHT22;38766;53.194;5.532;2022-11-20T13:19:55;3.60;99.90
51557;DHT22;38766;53.194;5.532;2022-11-20T13:22:29;3.60;99.90
51557;DHT22;38766;53.194;5.532;2022-11-20T13:24:57;3.60;99.90
51557;DHT22;38766;53.194;5.532;2022-11-20T13:27:23;3.50;99.90
51557;DHT22;38766;53.194;5.532;2022-11-20T13:38:47;3.50;99.90
51557;DHT22;38766;53.194;5.532;2022-11-20T13:46:06;3.50;99.90
51557;DHT22;38766;53.194;5.532;2022-11-20T13:48:34;3.40;99.90
51557;DHT22;38766;53.194;5.532;2022-11-20T13:59:26;3.40;99.90
51557;DHT22;38766;53.194;5.532;2022-11-20T14:01:54;3.40;99.90
51557;DHT22;38766;53.194;5.532;2022-11-20T14:04:35;3.40;99.90
51557;DHT22;38766;53.194;5.532;2022-11-20T14:07:02;3.40;99.90
51557;DHT22;38766;53.194;5.532;2022-11-20T14:09:32;3.30;99.90
51557;DHT22;38766;53.194;5.532;2022-11-20T14:11:58;3.30;99.90
51557;DHT22;38766;53.194;5.532;2022-11-20T14:14:28;3.30;99.90
51557;DHT22;38766;53.194;5.532;2022-11-20T14:19:50;3.30;99.90
51557;DHT22;38766;53.194;5.532;2022-11-20T14:22:27;3.40;99.90
51557;DHT22;38766;53.194;5.532;2022-11-20T14:25:18;3.40;99.90
51557;DHT22;38766;53.194;5.532;2022-11-20T14:27:48;3.40;99.90
51557;DHT22;38766;53.194;5.532;2022-11-20T14:30:18;3.40;99.90
51557;DHT22;38766;53.194;5.532;2022-11-20T14:32:45;3.40;99.90
51557;DHT22;38766;53.194;5.532;2022-11-20T14:35:18;3.30;99.90
51557;DHT22;38766;53.194;5.532;2022-11-20T14:37:48;3.30;99.90
51557;DHT22;38766;53.194;5.532;2022-11-20T14:40:31;3.30;99.90
51557;DHT22;38766;53.194;5.532;2022-11-20T14:42:58;3.30;99.90
51557;DHT22;38766;53.194;5.532;2022-11-20T14:45:25;3.30;99.90
51557;DHT22;38766;53.194;5.532;2022-11-20T14:47:55;3.30;99.90
51557;DHT22;38766;53.194;5.532;2022-11-20T14:50:27;3.30;99.90
51557;DHT22;38766;53.194;5.532;2022-11-20T14:53:00;3.30;99.90
51557;DHT22;38766;53.194;5.532;2022-11-20T14:58:23;3.30;99.90
51557;DHT22;38766;53.194;5.532;2022-11-20T15:01:01;3.30;99.90
51557;DHT22;38766;53.194;5.532;2022-11-20T15:03:40;3.30;99.90
51557;DHT22;38766;53.194;5.532;2022-11-20T15:06:11;3.30;99.90
51557;DHT22;38766;53.194;5.532;2022-11-20T15:08:38;3.20;99.90
51557;DHT22;38766;53.194;5.532;2022-11-20T15:11:17;3.20;99.90
51557;DHT22;38766;53.194;5.532;2022-11-20T15:13:43;3.20;99.90
51557;DHT22;38766;53.194;5.532;2022-11-20T15:16:19;3.20;99.90
51557;DHT22;38766;53.194;5.532;2022-11-20T15:18:45;3.20;99.90
51557;DHT22;38766;53.194;5.532;2022-11-20T15:21:14;3.20;99.90
51557;DHT22;38766;53.194;5.532;2022-11-20T15:23:40;3.20;99.90
51557;DHT22;38766;53.194;5.532;2022-11-20T15:26:07;3.20;99.90
51557;DHT22;38766;53.194;5.532;2022-11-20T15:28:40;3.20;99.90
51557;DHT22;38766;53.194;5.532;2022-11-20T15:31:06;3.20;99.90
51557;DHT22;38766;53.194;5.532;2022-11-20T15:33:32;3.20;99.90
51557;DHT22;38766;53.194;5.532;2022-11-20T15:35:59;3.20;99.90
51557;DHT22;38766;53.194;5.532;2022-11-20T15:38:25;3.20;99.90
51557;DHT22;38766;53.194;5.532;2022-11-20T15:40:51;3.20;99.90
51557;DHT22;38766;53.194;5.532;2022-11-20T15:43:16;3.20;99.90
51557;DHT22;38766;53.194;5.532;2022-11-20T15:45:48;3.10;99.90
51557;DHT22;38766;53.194;5.532;2022-11-20T15:50:59;3.10;99.90
51557;DHT22;38766;53.194;5.532;2022-11-20T15:53:27;3.10;99.90
51557;DHT22;38766;53.194;5.532;2022-11-20T15:55:53;3.10;99.90
51557;DHT22;38766;53.194;5.532;2022-11-20T15:58:19;3.00;99.90
51557;DHT22;38766;53.194;5.532;2022-11-20T16:00:45;3.00;99.90
51557;DHT22;38766;53.194;5.532;2022-11-20T16:03:12;3.00;99.90
51557;DHT22;38766;53.194;5.532;2022-11-20T16:05:38;3.00;99.90
51557;DHT22;38766;53.194;5.532;2022-11-20T16:08:04;3.00;99.90
51557;DHT22;38766;53.194;5.532;2022-11-20T16:10:30;3.00;99.90
51557;DHT22;38766;53.194;5.532;2022-11-20T16:12:56;3.00;99.90
51557;DHT22;38766;53.194;5.532;2022-11-20T16:15:40;3.00;99.90
51557;DHT22;38766;53.194;5.532;2022-11-20T16:18:14;3.00;99.90
51557;DHT22;38766;53.194;5.532;2022-11-20T16:20:40;3.00;99.90
51557;DHT22;38766;53.194;5.532;2022-11-20T16:23:06;3.00;99.90
51557;DHT22;38766;53.194;5.532;2022-11-20T16:25:32;3.00;99.90
51557;DHT22;38766;53.194;5.532;2022-11-20T16:27:58;2.90;99.90
51557;DHT22;38766;53.194;5.532;2022-11-20T16:30:24;3.00;99.90
51557;DHT22;38766;53.194;5.532;2022-11-20T16:32:49;2.90;99.90
51557;DHT22;38766;53.194;5.532;2022-11-20T16:35:15;2.90;99.90
51557;DHT22;38766;53.194;5.532;2022-11-20T16:37:41;2.90;99.90
51557;DHT22;38766;53.194;5.532;2022-11-20T16:40:09;2.90;99.90
51557;DHT22;38766;53.194;5.532;2022-11-20T16:42:36;2.90;99.90
51557;DHT22;38766;53.194;5.532;2022-11-20T16:45:03;2.90;99.90
51557;DHT22;38766;53.194;5.532;2022-11-20T16:47:33;2.90;99.90
51557;DHT22;38766;53.194;5.532;2022-11-20T16:49:59;2.90;99.90
51557;DHT22;38766;53.194;5.532;2022-11-20T16:52:25;2.80;99.90
51557;DHT22;38766;53.194;5.532;2022-11-20T16:54:50;2.80;99.90
51557;DHT22;38766;53.194;5.532;2022-11-20T16:57:16;2.90;99.90
51557;DHT22;38766;53.194;5.532;2022-11-20T16:59:42;2.90;99.90
51557;DHT22;38766;53.194;5.532;2022-11-20T17:02:09;2.90;99.90
51557;DHT22;38766;53.194;5.532;2022-11-20T17:04:35;2.90;99.90
51557;DHT22;38766;53.194;5.532;2022-11-20T17:07:01;2.90;99.90
51557;DHT22;38766;53.194;5.532;2022-11-20T17:09:28;2.80;99.90
51557;DHT22;38766;53.194;5.532;2022-11-20T17:11:53;2.90;99.90
51557;DHT22;38766;53.194;5.532;2022-11-20T17:14:19;2.90;99.90
51557;DHT22;38766;53.194;5.532;2022-11-20T17:16:45;2.90;99.90
51557;DHT22;38766;53.194;5.532;2022-11-20T17:19:11;2.90;99.90
51557;DHT22;38766;53.194;5.532;2022-11-20T17:21:37;2.90;99.90
51557;DHT22;38766;53.194;5.532;2022-11-20T17:24:06;2.90;99.90
51557;DHT22;38766;53.194;5.532;2022-11-20T17:26:33;2.90;99.90
51557;DHT22;38766;53.194;5.532;2022-11-20T17:29:07;2.90;99.90
51557;DHT22;38766;53.194;5.532;2022-11-20T17:31:35;2.90;99.90
51557;DHT22;38766;53.194;5.532;2022-11-20T17:34:03;2.90;99.90
51557;DHT22;38766;53.194;5.532;2022-11-20T17:36:30;2.90;99.90
51557;DHT22;38766;53.194;5.532;2022-11-20T17:38:58;2.90;99.90
51557;DHT22;38766;53.194;5.532;2022-11-20T17:41:26;2.90;99.90
51557;DHT22;38766;53.194;5.532;2022-11-20T17:44:00;2.90;99.90
51557;DHT22;38766;53.194;5.532;2022-11-20T17:46:28;2.90;99.90
51557;DHT22;38766;53.194;5.532;2022-11-20T17:48:55;2.90;99.90
51557;DHT22;38766;53.194;5.532;2022-11-20T17:51:26;2.90;99.90